createdAt,value
2022-12-31T00:00:04.881Z,15.35
2022-12-31T00:02:31.332Z,15.34
2022-12-31T00:04:57.750Z,15.33
2022-12-31T00:07:24.165Z,15.31
2022-12-31T00:09:50.526Z,15.30
2022-12-31T00:12:16.882Z,15.29
2022-12-31T00:14:43.220Z,15.26
2022-12-31T00:17:09.737Z,15.25
2022-12-31T00:19:36.146Z,15.23
2022-12-31T00:22:02.655Z,15.22
2022-12-31T00:24:31.039Z,15.20
2022-12-31T00:26:57.544Z,15.20
2022-12-31T00:29:24.052Z,15.18
2022-12-31T00:31:50.400Z,15.17
2022-12-31T00:34:16.724Z,15.18
2022-12-31T00:36:43.434Z,15.15
2022-12-31T00:39:10.646Z,15.15
2022-12-31T00:41:37.619Z,15.14
2022-12-31T00:44:04.451Z,15.15
2022-12-31T00:46:31.843Z,15.14
2022-12-31T00:48:58.335Z,15.13
2022-12-31T00:51:27.428Z,15.14
2022-12-31T00:53:55.384Z,15.13
2022-12-31T00:56:24.051Z,15.13
2022-12-31T00:58:51.228Z,15.12
2022-12-31T01:01:29.927Z,15.14
2022-12-31T01:04:00.582Z,15.14
2022-12-31T01:06:26.954Z,15.13
2022-12-31T01:08:55.151Z,15.14
2022-12-31T01:11:22.929Z,15.15
2022-12-31T01:13:49.719Z,15.16
2022-12-31T01:16:17.779Z,15.15
2022-12-31T01:18:44.523Z,15.16
2022-12-31T01:21:12.999Z,15.18
2022-12-31T01:23:39.700Z,15.17
2022-12-31T01:26:09.745Z,15.17
2022-12-31T01:28:36.381Z,15.17
2022-12-31T01:31:07.818Z,15.18
2022-12-31T01:33:34.544Z,15.18
2022-12-31T01:36:11.286Z,15.19
2022-12-31T01:38:38.076Z,15.19
2022-12-31T01:41:05.005Z,15.19
2022-12-31T01:43:46.213Z,15.21
2022-12-31T01:46:31.356Z,15.23
2022-12-31T01:49:02.452Z,15.23
2022-12-31T01:51:32.735Z,15.22
2022-12-31T01:54:00.245Z,15.22
2022-12-31T01:56:26.741Z,15.23
2022-12-31T01:58:56.553Z,15.23
2022-12-31T02:01:30.276Z,15.24
2022-12-31T02:03:57.547Z,15.23
2022-12-31T02:06:40.284Z,15.25
2022-12-31T02:09:07.714Z,15.24
2022-12-31T02:11:37.700Z,15.25
2022-12-31T02:14:13.297Z,15.27
2022-12-31T02:17:14.981Z,15.28
2022-12-31T02:20:08.804Z,15.29
2022-12-31T02:23:01.556Z,15.30
2022-12-31T02:26:01.466Z,15.29
2022-12-31T02:28:30.774Z,15.28
2022-12-31T02:31:16.979Z,15.28
2022-12-31T02:33:58.158Z,15.28
2022-12-31T02:36:33.877Z,15.27
2022-12-31T02:39:02.881Z,15.26
2022-12-31T02:41:48.158Z,15.26
2022-12-31T02:44:41.318Z,15.26
2022-12-31T02:47:07.661Z,15.25
2022-12-31T02:49:54.084Z,15.26
2022-12-31T02:52:31.563Z,15.28
2022-12-31T02:55:17.655Z,15.27
2022-12-31T02:57:56.660Z,15.26
2022-12-31T03:00:42.370Z,15.26
2022-12-31T03:03:10.435Z,15.26
2022-12-31T03:05:41.461Z,15.25
2022-12-31T03:08:08.609Z,15.27
2022-12-31T03:10:35.712Z,15.28
2022-12-31T03:13:02.779Z,15.28
2022-12-31T03:15:34.177Z,15.28
2022-12-31T03:18:08.370Z,15.26
2022-12-31T03:20:55.198Z,15.23
2022-12-31T03:23:27.816Z,15.20
2022-12-31T03:25:55.743Z,15.15
2022-12-31T03:28:24.947Z,15.11
2022-12-31T03:30:54.956Z,15.07
2022-12-31T03:33:22.613Z,15.01
2022-12-31T03:35:50.021Z,14.98
2022-12-31T03:38:17.825Z,14.93
2022-12-31T03:40:47.022Z,14.89
2022-12-31T03:43:13.449Z,14.84
2022-12-31T03:45:40.430Z,14.80
2022-12-31T03:48:09.195Z,14.78
2022-12-31T03:50:36.038Z,14.73
2022-12-31T03:53:02.473Z,14.72
2022-12-31T03:55:28.909Z,14.71
2022-12-31T03:57:55.276Z,14.71
2022-12-31T04:00:22.207Z,14.71
2022-12-31T04:02:50.031Z,14.70
2022-12-31T04:05:18.114Z,14.71
2022-12-31T04:07:45.098Z,14.71
2022-12-31T04:10:14.264Z,14.72
2022-12-31T04:12:40.788Z,14.70
2022-12-31T04:15:11.235Z,14.69
2022-12-31T04:17:37.823Z,14.69
2022-12-31T04:20:04.527Z,14.69
2022-12-31T04:22:30.856Z,14.69
2022-12-31T04:24:57.267Z,14.68
2022-12-31T04:27:23.602Z,14.67
2022-12-31T04:29:50.118Z,14.68
2022-12-31T04:32:16.528Z,14.67
2022-12-31T04:34:42.921Z,14.67
2022-12-31T04:37:09.322Z,14.67
2022-12-31T04:39:35.675Z,14.68
2022-12-31T04:42:02.100Z,14.68
2022-12-31T04:44:28.546Z,14.68
2022-12-31T04:46:54.974Z,14.68
2022-12-31T04:49:21.399Z,14.69
2022-12-31T04:51:47.740Z,14.69
2022-12-31T04:54:14.145Z,14.69
2022-12-31T04:56:40.549Z,14.69
2022-12-31T04:59:07.283Z,14.70
2022-12-31T05:01:33.913Z,14.71
2022-12-31T05:04:00.457Z,14.70
2022-12-31T05:06:27.059Z,14.72
2022-12-31T05:08:53.469Z,14.73
2022-12-31T05:11:19.848Z,14.74
2022-12-31T05:13:46.339Z,14.75
2022-12-31T05:16:12.795Z,14.75
2022-12-31T05:18:39.157Z,14.73
2022-12-31T05:21:06.255Z,14.71
2022-12-31T05:23:32.711Z,14.71
2022-12-31T05:25:59.650Z,14.70
2022-12-31T05:28:26.589Z,14.70
2022-12-31T05:30:53.241Z,14.70
2022-12-31T05:33:20.588Z,14.68
2022-12-31T05:35:47.110Z,14.69
2022-12-31T05:38:13.529Z,14.68
2022-12-31T05:40:39.903Z,14.70
2022-12-31T05:43:07.123Z,14.71
2022-12-31T05:45:33.547Z,14.72
2022-12-31T05:48:00.394Z,14.73
2022-12-31T05:50:26.830Z,14.75
2022-12-31T05:52:53.256Z,14.77
2022-12-31T05:55:19.695Z,14.79
2022-12-31T05:57:46.250Z,14.80
2022-12-31T06:00:13.646Z,14.82
2022-12-31T06:02:40.171Z,14.83
2022-12-31T06:05:07.283Z,14.84
2022-12-31T06:07:33.707Z,14.85
2022-12-31T06:10:00.170Z,14.87
2022-12-31T06:12:26.568Z,14.87
2022-12-31T06:14:52.964Z,14.89
2022-12-31T06:17:20.498Z,14.90
2022-12-31T06:19:47.319Z,14.92
2022-12-31T06:22:14.143Z,14.93
2022-12-31T06:24:40.610Z,14.94
2022-12-31T06:27:06.964Z,14.95
2022-12-31T06:29:33.342Z,14.96
2022-12-31T06:31:59.702Z,14.97
2022-12-31T06:34:26.024Z,14.97
2022-12-31T06:36:52.533Z,14.97
2022-12-31T06:39:18.976Z,14.98
2022-12-31T06:41:45.340Z,14.99
2022-12-31T06:44:11.942Z,14.98
2022-12-31T06:46:38.334Z,14.99
2022-12-31T06:49:04.711Z,14.98
2022-12-31T06:51:31.236Z,14.96
2022-12-31T06:53:57.646Z,14.95
2022-12-31T06:56:33.839Z,14.96
2022-12-31T06:59:02.146Z,14.96
2022-12-31T07:01:50.420Z,14.96
2022-12-31T07:04:35.560Z,14.97
2022-12-31T07:07:29.309Z,14.95
2022-12-31T07:10:29.164Z,14.95
2022-12-31T07:13:14.363Z,14.93
2022-12-31T07:16:06.042Z,14.91
2022-12-31T07:18:44.551Z,14.89
2022-12-31T07:21:18.353Z,14.89
2022-12-31T07:23:45.173Z,14.87
2022-12-31T07:26:34.269Z,14.88
2022-12-31T07:29:12.864Z,14.87
2022-12-31T07:31:57.736Z,14.89
2022-12-31T07:34:41.988Z,14.87
2022-12-31T07:37:19.532Z,14.87
2022-12-31T07:40:09.247Z,14.87
2022-12-31T07:43:01.284Z,14.88
2022-12-31T07:45:46.333Z,14.87
2022-12-31T07:48:26.554Z,14.89
2022-12-31T07:50:54.748Z,14.89
2022-12-31T07:53:22.448Z,14.90
2022-12-31T07:55:57.280Z,14.91
2022-12-31T07:58:45.039Z,14.95
2022-12-31T08:01:15.720Z,14.96
2022-12-31T08:03:54.331Z,14.99
2022-12-31T08:06:51.240Z,15.00
2022-12-31T08:09:17.532Z,15.05
2022-12-31T08:11:58.946Z,15.06
2022-12-31T08:14:26.390Z,15.05
2022-12-31T08:16:53.554Z,15.06
2022-12-31T08:19:30.843Z,15.07
2022-12-31T08:22:44.587Z,15.11
2022-12-31T08:25:25.548Z,15.13
2022-12-31T08:28:16.360Z,15.16
2022-12-31T08:31:01.192Z,15.19
2022-12-31T08:33:47.424Z,15.21
2022-12-31T08:36:23.953Z,15.26
2022-12-31T08:38:54.417Z,15.29
2022-12-31T08:41:42.935Z,15.35
2022-12-31T08:44:09.593Z,15.40
2022-12-31T08:46:45.792Z,15.47
2022-12-31T08:49:14.632Z,15.53
2022-12-31T08:51:41.544Z,15.61
2022-12-31T08:54:10.981Z,15.68
2022-12-31T08:57:25.583Z,15.78
2022-12-31T09:00:01.014Z,15.89
2022-12-31T09:03:00.383Z,16.01
2022-12-31T09:06:00.353Z,16.14
2022-12-31T09:08:36.828Z,16.26
2022-12-31T09:11:22.952Z,16.37
2022-12-31T09:14:03.752Z,16.46
2022-12-31T09:16:39.336Z,16.57
2022-12-31T09:19:08.573Z,16.64
2022-12-31T09:21:35.108Z,16.74
2022-12-31T09:24:07.445Z,16.82
2022-12-31T09:26:47.783Z,16.90
2022-12-31T09:29:27.376Z,16.95
2022-12-31T09:32:23.666Z,16.99
2022-12-31T09:35:04.199Z,17.02
2022-12-31T09:37:49.836Z,17.06
2022-12-31T09:40:25.151Z,17.07
2022-12-31T09:43:22.421Z,17.10
2022-12-31T09:46:01.000Z,17.14
2022-12-31T09:48:52.173Z,17.16
2022-12-31T09:51:32.631Z,17.20
2022-12-31T09:54:30.051Z,17.24
2022-12-31T09:57:30.728Z,17.29
2022-12-31T10:00:09.797Z,17.31
2022-12-31T10:03:16.763Z,17.33
2022-12-31T10:06:05.213Z,17.30
2022-12-31T10:09:07.979Z,17.22
2022-12-31T10:12:04.678Z,17.09
2022-12-31T10:14:55.563Z,16.98
2022-12-31T10:18:03.906Z,16.84
2022-12-31T10:20:45.244Z,16.73
2022-12-31T10:23:26.326Z,16.61
2022-12-31T10:26:07.910Z,16.54
2022-12-31T10:28:51.237Z,16.47
2022-12-31T10:31:40.895Z,16.41
2022-12-31T10:34:25.719Z,16.40
2022-12-31T10:37:03.806Z,16.35
2022-12-31T10:39:54.011Z,16.36
2022-12-31T10:42:31.101Z,16.35
2022-12-31T10:45:17.636Z,16.37
2022-12-31T10:48:13.790Z,16.40
2022-12-31T10:51:01.211Z,16.42
2022-12-31T10:53:48.056Z,16.45
2022-12-31T10:56:48.553Z,16.51
2022-12-31T10:59:33.984Z,16.54
2022-12-31T11:02:18.887Z,16.57
2022-12-31T11:05:23.167Z,16.64
2022-12-31T11:08:38.007Z,16.70
2022-12-31T11:11:22.879Z,16.74
2022-12-31T11:14:04.480Z,16.77
2022-12-31T11:17:12.414Z,16.82
2022-12-31T11:19:44.428Z,16.86
2022-12-31T11:22:35.588Z,16.89
2022-12-31T11:25:28.937Z,16.93
2022-12-31T11:28:07.628Z,16.97
2022-12-31T11:30:55.820Z,17.02
2022-12-31T11:33:50.548Z,17.09
2022-12-31T11:36:22.782Z,17.13
2022-12-31T11:39:02.563Z,17.17
2022-12-31T11:41:51.933Z,17.21
2022-12-31T11:44:40.417Z,17.23
2022-12-31T11:48:20.225Z,17.24
2022-12-31T11:50:43.129Z,17.25
2022-12-31T11:53:23.923Z,17.26
2022-12-31T11:56:06.181Z,17.27
2022-12-31T11:58:32.552Z,17.28
2022-12-31T12:01:33.767Z,17.30
2022-12-31T12:04:01.086Z,17.31
2022-12-31T12:06:30.087Z,17.35
2022-12-31T12:09:01.578Z,17.36
2022-12-31T12:11:32.386Z,17.41
2022-12-31T12:13:58.723Z,17.44
2022-12-31T12:16:26.907Z,17.48
2022-12-31T12:19:16.452Z,17.53
2022-12-31T12:21:47.763Z,17.59
2022-12-31T12:24:30.693Z,17.64
2022-12-31T12:26:57.635Z,17.67
2022-12-31T12:29:31.840Z,17.72
2022-12-31T12:32:19.660Z,17.75
2022-12-31T12:34:49.602Z,17.77
2022-12-31T12:37:28.607Z,17.80
2022-12-31T12:40:01.707Z,17.81
2022-12-31T12:42:29.324Z,17.82
2022-12-31T12:45:05.169Z,17.85
2022-12-31T12:47:32.192Z,17.86
2022-12-31T12:49:59.116Z,17.87
2022-12-31T12:53:02.669Z,17.90
2022-12-31T12:55:54.086Z,17.92
2022-12-31T12:58:51.488Z,17.95
2022-12-31T13:01:41.865Z,17.99
2022-12-31T13:07:19.540Z,18.06
2022-12-31T13:09:59.597Z,18.11
2022-12-31T13:13:05.284Z,18.14
2022-12-31T13:15:54.014Z,18.18
2022-12-31T13:18:35.109Z,18.21
2022-12-31T13:21:39.009Z,18.25
2022-12-31T13:24:14.801Z,18.28
2022-12-31T13:27:04.514Z,18.31
2022-12-31T13:29:34.540Z,18.33
2022-12-31T13:32:04.701Z,18.35
2022-12-31T13:34:35.041Z,18.38
2022-12-31T13:37:24.516Z,18.40
2022-12-31T13:40:01.403Z,18.40
2022-12-31T13:42:51.723Z,18.39
2022-12-31T13:45:25.177Z,18.37
2022-12-31T13:47:57.098Z,18.34
2022-12-31T13:50:55.291Z,18.30
2022-12-31T13:53:26.961Z,18.27
2022-12-31T13:55:58.817Z,18.23
2022-12-31T13:58:36.954Z,18.19
2022-12-31T14:01:38.514Z,18.15
2022-12-31T14:04:15.853Z,18.11
2022-12-31T14:07:16.655Z,18.07
2022-12-31T14:09:43.242Z,18.01
2022-12-31T14:12:39.936Z,17.98
2022-12-31T14:15:35.137Z,17.95
2022-12-31T14:18:27.641Z,17.92
2022-12-31T14:21:03.578Z,17.90
2022-12-31T14:23:40.290Z,17.92
2022-12-31T14:26:31.219Z,17.91
2022-12-31T14:29:09.768Z,17.88
2022-12-31T14:31:57.706Z,17.87
2022-12-31T14:35:01.545Z,17.87
2022-12-31T14:37:45.559Z,17.87
2022-12-31T14:40:14.802Z,17.85
2022-12-31T14:43:11.102Z,17.87
2022-12-31T14:46:03.941Z,17.87
2022-12-31T14:48:39.292Z,17.87
2022-12-31T14:51:06.762Z,17.86
2022-12-31T14:53:33.436Z,17.84
2022-12-31T14:56:06.118Z,17.86
2022-12-31T14:58:44.280Z,17.84
2022-12-31T15:01:18.737Z,17.84
2022-12-31T15:03:46.329Z,17.84
2022-12-31T15:06:27.903Z,17.84
2022-12-31T15:09:15.048Z,17.84
2022-12-31T15:12:03.499Z,17.84
2022-12-31T15:15:14.527Z,17.85
2022-12-31T15:17:53.586Z,17.85
2022-12-31T15:20:34.923Z,17.85
2022-12-31T15:23:01.876Z,17.83
2022-12-31T15:25:40.437Z,17.82
2022-12-31T15:28:30.418Z,17.83
2022-12-31T15:31:03.539Z,17.81
2022-12-31T15:33:36.456Z,17.80
2022-12-31T15:36:21.251Z,17.79
2022-12-31T15:38:48.754Z,17.77
2022-12-31T15:41:25.799Z,17.78
2022-12-31T15:44:07.657Z,17.80
2022-12-31T15:46:40.919Z,17.81
2022-12-31T15:49:18.217Z,17.83
2022-12-31T15:51:56.013Z,17.86
2022-12-31T15:54:37.956Z,17.85
2022-12-31T15:57:09.446Z,17.86
2022-12-31T15:59:38.054Z,17.86
2022-12-31T16:02:04.540Z,17.86
2022-12-31T16:04:33.366Z,17.86
2022-12-31T16:07:03.735Z,17.88
2022-12-31T16:09:34.313Z,17.88
2022-12-31T16:12:02.340Z,17.89
2022-12-31T16:14:36.225Z,17.91
2022-12-31T16:17:03.170Z,17.91
2022-12-31T16:19:42.875Z,17.93
2022-12-31T16:22:16.862Z,17.94
2022-12-31T16:25:19.472Z,17.93
2022-12-31T16:27:31.272Z,17.94
2022-12-31T16:30:01.026Z,17.93
2022-12-31T16:32:34.500Z,17.92
2022-12-31T16:35:00.841Z,17.89
2022-12-31T16:37:27.687Z,17.88
2022-12-31T16:40:09.485Z,17.87
2022-12-31T16:42:44.118Z,17.85
2022-12-31T16:45:35.978Z,17.82
2022-12-31T16:48:22.666Z,17.80
2022-12-31T16:50:52.452Z,17.77
2022-12-31T16:53:22.381Z,17.74
2022-12-31T16:55:55.395Z,17.73
2022-12-31T16:58:32.854Z,17.72
2022-12-31T17:01:20.960Z,17.72
2022-12-31T17:03:53.473Z,17.72
2022-12-31T17:06:21.342Z,17.69
2022-12-31T17:08:55.747Z,17.69
2022-12-31T17:11:39.053Z,17.69
2022-12-31T17:14:05.308Z,17.66
2022-12-31T17:16:33.371Z,17.65
2022-12-31T17:18:59.809Z,17.63
2022-12-31T17:21:28.778Z,17.63
2022-12-31T17:24:01.652Z,17.62
2022-12-31T17:26:30.924Z,17.60
2022-12-31T17:28:59.816Z,17.58
2022-12-31T17:31:33.577Z,17.58
2022-12-31T17:34:22.164Z,17.57
2022-12-31T17:37:18.113Z,17.55
2022-12-31T17:39:46.970Z,17.55
2022-12-31T17:42:21.950Z,17.53
2022-12-31T17:44:48.420Z,17.53
2022-12-31T17:47:14.995Z,17.52
2022-12-31T17:49:44.973Z,17.52
2022-12-31T17:52:15.858Z,17.52
2022-12-31T17:54:42.409Z,17.52
2022-12-31T17:57:24.585Z,17.53
2022-12-31T17:59:51.178Z,17.53
2022-12-31T18:02:17.643Z,17.52
2022-12-31T18:04:44.052Z,17.53
2022-12-31T18:07:10.389Z,17.52
2022-12-31T18:09:36.855Z,17.52
2022-12-31T18:12:05.736Z,17.51
2022-12-31T18:14:32.111Z,17.50
2022-12-31T18:16:58.491Z,17.49
2022-12-31T18:19:54.132Z,17.48
2022-12-31T18:22:17.261Z,17.52
2022-12-31T18:24:44.117Z,17.52
2022-12-31T18:27:18.341Z,17.52
2022-12-31T18:29:45.219Z,17.50
2022-12-31T18:32:23.907Z,17.50
2022-12-31T18:34:51.118Z,17.49
2022-12-31T18:37:22.114Z,17.50
2022-12-31T18:39:49.095Z,17.50
2022-12-31T18:42:17.848Z,17.52
2022-12-31T18:44:45.259Z,17.52
2022-12-31T18:47:16.679Z,17.53
2022-12-31T18:49:44.805Z,17.57
2022-12-31T18:52:20.395Z,17.59
2022-12-31T18:54:47.005Z,17.59
2022-12-31T18:57:15.155Z,17.60
2022-12-31T18:59:42.266Z,17.61
2022-12-31T19:02:18.504Z,17.63
2022-12-31T19:04:45.602Z,17.62
2022-12-31T19:07:12.081Z,17.63
2022-12-31T19:09:47.132Z,17.63
2022-12-31T19:12:15.277Z,17.64
2022-12-31T19:14:41.823Z,17.65
2022-12-31T19:19:34.533Z,17.69
2022-12-31T19:22:01.085Z,17.72
2022-12-31T19:24:27.561Z,17.75
2022-12-31T19:26:54.420Z,17.79
2022-12-31T19:29:25.874Z,17.83
2022-12-31T19:31:52.912Z,17.84
2022-12-31T19:34:19.416Z,17.86
2022-12-31T19:36:46.225Z,17.88
2022-12-31T19:39:18.939Z,17.91
2022-12-31T19:41:45.693Z,17.92
2022-12-31T19:44:19.456Z,17.94
2022-12-31T19:46:46.845Z,17.94
2022-12-31T19:49:14.289Z,17.95
2022-12-31T19:51:41.522Z,17.96
2022-12-31T19:54:08.064Z,17.97
2022-12-31T19:56:34.650Z,17.97
2022-12-31T19:59:08.666Z,17.98
2022-12-31T20:01:35.137Z,17.98
2022-12-31T20:04:01.571Z,17.98
2022-12-31T20:06:27.981Z,17.97
2022-12-31T20:08:54.428Z,17.97
2022-12-31T20:11:23.228Z,17.97
2022-12-31T20:13:52.095Z,17.96
2022-12-31T20:16:20.782Z,17.94
2022-12-31T20:18:48.079Z,17.92
2022-12-31T20:21:19.552Z,17.92
2022-12-31T20:23:47.276Z,17.90
2022-12-31T20:26:13.833Z,17.89
2022-12-31T20:28:40.445Z,17.88
2022-12-31T20:31:08.958Z,17.86
2022-12-31T20:33:35.453Z,17.88
2022-12-31T20:36:07.555Z,17.87
2022-12-31T20:38:34.425Z,17.88
2022-12-31T20:41:09.742Z,17.90
2022-12-31T20:43:37.021Z,17.91
2022-12-31T20:46:22.245Z,17.93
2022-12-31T20:48:51.144Z,17.94
2022-12-31T20:51:19.182Z,17.95
2022-12-31T20:54:00.509Z,17.96
2022-12-31T20:56:29.465Z,17.95
2022-12-31T20:58:56.286Z,17.96
2022-12-31T21:01:23.552Z,17.97
2022-12-31T21:04:06.854Z,17.98
2022-12-31T21:06:35.203Z,17.99
2022-12-31T21:09:04.087Z,18.02
2022-12-31T21:11:49.020Z,18.02
2022-12-31T21:14:15.393Z,18.02
2022-12-31T21:16:42.625Z,18.03
2022-12-31T21:19:09.809Z,18.03
2022-12-31T21:21:36.517Z,18.04
2022-12-31T21:24:03.573Z,18.01
2022-12-31T21:26:30.791Z,17.98
2022-12-31T21:28:57.289Z,17.98
2022-12-31T21:31:23.784Z,17.96
2022-12-31T21:33:53.896Z,17.95
2022-12-31T21:36:20.256Z,17.93
2022-12-31T21:38:46.674Z,17.94
2022-12-31T21:41:34.984Z,17.95
2022-12-31T21:44:02.053Z,17.96
2022-12-31T21:46:28.634Z,17.98
2022-12-31T21:48:59.016Z,18.00
2022-12-31T21:51:26.318Z,18.00
2022-12-31T21:53:52.811Z,18.03
2022-12-31T21:56:21.471Z,18.06
2022-12-31T21:59:16.933Z,18.09
2022-12-31T22:02:02.221Z,18.10
2022-12-31T22:05:01.036Z,18.12
2022-12-31T22:07:15.359Z,18.12
2022-12-31T22:09:41.897Z,18.14
2022-12-31T22:12:08.270Z,18.13
2022-12-31T22:14:34.742Z,18.13
2022-12-31T22:17:01.167Z,18.12
2022-12-31T22:19:27.572Z,18.10
2022-12-31T22:21:53.997Z,18.07
2022-12-31T22:24:20.453Z,18.04
2022-12-31T22:26:47.065Z,18.01
2022-12-31T22:29:13.712Z,17.98
2022-12-31T22:31:40.158Z,17.97
2022-12-31T22:34:06.793Z,17.96
2022-12-31T22:36:33.230Z,17.94
2022-12-31T22:38:59.671Z,17.93
2022-12-31T22:41:27.234Z,17.94
2022-12-31T22:44:03.134Z,17.96
2022-12-31T22:46:30.687Z,17.97
2022-12-31T22:48:59.144Z,17.98
2022-12-31T22:51:54.972Z,17.98
2022-12-31T22:54:12.769Z,18.03
2022-12-31T22:56:39.308Z,18.05
2022-12-31T22:59:05.690Z,18.08
2022-12-31T23:01:32.260Z,18.08
2022-12-31T23:03:58.896Z,18.12
2022-12-31T23:06:25.495Z,18.13
2022-12-31T23:09:11.260Z,18.15
2022-12-31T23:11:39.687Z,18.18
2022-12-31T23:14:26.363Z,18.21
2022-12-31T23:17:29.449Z,18.26
2022-12-31T23:20:16.128Z,18.28
2022-12-31T23:23:01.010Z,18.31
2022-12-31T23:25:27.616Z,18.33
2022-12-31T23:27:54.140Z,18.35
2022-12-31T23:30:20.523Z,18.38
2022-12-31T23:32:46.965Z,18.40
2022-12-31T23:35:13.983Z,18.41
2022-12-31T23:37:40.439Z,18.43
2022-12-31T23:40:07.602Z,18.43
2022-12-31T23:42:34.012Z,18.44
2022-12-31T23:45:00.425Z,18.44
2022-12-31T23:47:26.897Z,18.44
2022-12-31T23:49:53.237Z,18.43
2022-12-31T23:52:20.364Z,18.46
2022-12-31T23:54:46.803Z,18.46
2022-12-31T23:57:13.340Z,18.47
2022-12-31T23:59:39.663Z,18.48
